Terminal Aerodrome Forecast
Issued by NWS

Current Version | Previous Version | Graphics & Text | Print | Product List | Glossary On
Versions: 1 2 3 4 5 6 7 8 9 10 11 12 13 14 15 16 17 18 19 20 21 22 23 24 25 26 27 28 29
000
FTUS41 KPBZ 222331
TAFHLG
TAF
KHLG 222331Z 2300/2324 18007KT P6SM SCT025 BKN060
      TEMPO 2300/2302 BKN025
     FM230600 23004KT 3SM BR BKN015
     FM231200 21005KT 2SM BR BKN008
     FM231400 22006KT P6SM BKN035
     FM232100 25007KT 6SM -SHRA VCTS BKN060CB=

USA.gov is the U.S. government's official web portal to all federal, state and local government web resources and services.